createdAt,value
2023-01-23T00:01:30.480Z,-7.82
2023-01-23T00:03:57.581Z,-7.73
2023-01-23T00:06:24.733Z,-7.74
2023-01-23T00:08:51.337Z,-7.73
2023-01-23T00:11:21.405Z,-7.79
2023-01-23T00:13:48.655Z,-7.82
2023-01-23T00:16:18.166Z,-7.94
2023-01-23T00:18:45.831Z,-7.84
2023-01-23T00:21:15.467Z,-7.75
2023-01-23T00:23:44.123Z,-7.73
2023-01-23T00:26:16.812Z,-7.77
2023-01-23T00:28:46.604Z,-7.69
2023-01-23T00:31:20.043Z,-7.66
2023-01-23T00:33:52.671Z,-7.62
2023-01-23T00:36:21.957Z,-7.57
2023-01-23T00:38:48.558Z,-7.46
2023-01-23T00:41:15.201Z,-7.33
2023-01-23T00:43:42.363Z,-7.24
2023-01-23T00:46:10.433Z,-7.08
2023-01-23T00:48:37.014Z,-6.99
2023-01-23T00:51:04.277Z,-6.89
2023-01-23T00:53:30.929Z,-6.81
2023-01-23T00:55:57.587Z,-6.71
2023-01-23T00:58:24.373Z,-6.63
2023-01-23T01:00:51.036Z,-6.53
2023-01-23T01:03:19.338Z,-6.44
2023-01-23T01:05:46.797Z,-6.31
2023-01-23T01:08:13.421Z,-6.16
2023-01-23T01:10:41.522Z,-6.02
2023-01-23T01:13:09.740Z,-5.95
2023-01-23T01:15:37.716Z,-5.86
2023-01-23T01:18:05.310Z,-5.79
2023-01-23T01:20:31.885Z,-5.71
2023-01-23T01:22:59.185Z,-5.66
2023-01-23T01:25:25.835Z,-5.58
2023-01-23T01:27:55.917Z,-5.46
2023-01-23T01:30:23.256Z,-5.38
2023-01-23T01:32:49.916Z,-5.28
2023-01-23T01:35:16.533Z,-5.21
2023-01-23T01:37:43.091Z,-5.13
2023-01-23T01:40:14.603Z,-5.08
2023-01-23T01:42:52.295Z,-5.02
2023-01-23T01:45:56.381Z,-4.98
2023-01-23T01:48:26.660Z,-4.99
2023-01-23T01:50:53.952Z,-5.03
2023-01-23T01:53:23.258Z,-5.17
2023-01-23T01:55:50.731Z,-5.28
2023-01-23T01:58:18.295Z,-5.39
2023-01-23T02:00:45.140Z,-5.53
2023-01-23T02:03:12.199Z,-5.66
2023-01-23T02:05:49.720Z,-5.76
2023-01-23T02:08:43.029Z,-5.81
2023-01-23T02:11:09.985Z,-5.83
2023-01-23T02:13:39.753Z,-5.84
2023-01-23T02:16:24.052Z,-5.79
2023-01-23T02:18:54.618Z,-5.79
2023-01-23T02:21:25.452Z,-5.76
2023-01-23T02:24:01.839Z,-5.74
2023-01-23T02:26:36.726Z,-5.73
2023-01-23T02:29:05.763Z,-5.75
2023-01-23T02:31:42.876Z,-5.76
2023-01-23T02:34:12.536Z,-5.78
2023-01-23T02:36:42.684Z,-5.79
2023-01-23T02:39:15.833Z,-5.70
2023-01-23T02:41:48.606Z,-5.68
2023-01-23T02:44:31.779Z,-5.68
2023-01-23T02:47:08.043Z,-5.64
2023-01-23T02:49:34.771Z,-5.59
2023-01-23T02:52:04.253Z,-5.56
2023-01-23T02:54:31.732Z,-5.49
2023-01-23T02:56:58.558Z,-5.48
2023-01-23T02:59:43.814Z,-5.49
2023-01-23T03:02:11.063Z,-5.51
2023-01-23T03:04:37.698Z,-5.48
2023-01-23T03:07:04.340Z,-5.46
2023-01-23T03:09:31.036Z,-5.41
2023-01-23T03:12:02.297Z,-5.41
2023-01-23T03:14:30.170Z,-5.42
2023-01-23T03:16:58.599Z,-5.32
2023-01-23T03:19:31.252Z,-5.27
2023-01-23T03:22:01.727Z,-5.22
2023-01-23T03:24:28.359Z,-5.22
2023-01-23T03:26:55.075Z,-5.18
2023-01-23T03:29:44.742Z,-5.10
2023-01-23T03:32:15.160Z,-5.06
2023-01-23T03:34:42.894Z,-5.04
2023-01-23T03:37:11.574Z,-5.02
2023-01-23T03:39:57.870Z,-5.02
2023-01-23T03:42:25.335Z,-4.97
2023-01-23T03:44:54.091Z,-4.94
2023-01-23T03:47:26.257Z,-4.93
2023-01-23T03:49:54.184Z,-4.85
2023-01-23T03:52:20.742Z,-4.84
2023-01-23T03:54:47.461Z,-4.79
2023-01-23T03:57:14.056Z,-4.81
2023-01-23T03:59:59.301Z,-4.76
2023-01-23T04:02:29.336Z,-4.77
2023-01-23T04:04:56.285Z,-4.71
2023-01-23T04:07:22.956Z,-4.72
2023-01-23T04:09:49.903Z,-4.73
2023-01-23T04:12:16.604Z,-4.75
2023-01-23T04:14:47.357Z,-4.75
2023-01-23T04:17:14.539Z,-4.73
2023-01-23T04:19:41.190Z,-4.72
2023-01-23T04:22:07.771Z,-4.64
2023-01-23T04:24:40.488Z,-4.59
2023-01-23T04:27:07.109Z,-4.59
2023-01-23T04:29:34.907Z,-4.56
2023-01-23T04:32:02.440Z,-4.56
2023-01-23T04:34:30.904Z,-4.49
2023-01-23T04:36:58.002Z,-4.50
2023-01-23T04:39:24.783Z,-4.55
2023-01-23T04:41:51.393Z,-4.58
2023-01-23T04:44:27.496Z,-4.58
2023-01-23T04:47:12.805Z,-4.61
2023-01-23T04:49:39.832Z,-4.65
2023-01-23T04:52:06.773Z,-4.56
2023-01-23T04:54:37.541Z,-4.60
2023-01-23T04:57:04.366Z,-4.57
2023-01-23T04:59:32.109Z,-4.52
2023-01-23T05:01:58.680Z,-4.50
2023-01-23T05:04:25.590Z,-4.44
2023-01-23T05:06:52.255Z,-4.45
2023-01-23T05:09:18.889Z,-4.42
2023-01-23T05:11:50.925Z,-4.47
2023-01-23T05:14:18.673Z,-4.41
2023-01-23T05:16:47.828Z,-4.33
2023-01-23T05:19:17.886Z,-4.33
2023-01-23T05:21:46.385Z,-4.26
2023-01-23T05:24:19.509Z,-4.29
2023-01-23T05:26:48.983Z,-4.26
2023-01-23T05:29:16.619Z,-4.26
2023-01-23T05:31:58.360Z,-4.25
2023-01-23T05:34:37.429Z,-4.27
2023-01-23T05:37:10.296Z,-4.22
2023-01-23T05:39:38.795Z,-4.20
2023-01-23T05:42:07.101Z,-4.20
2023-01-23T05:44:59.167Z,-4.28
2023-01-23T05:47:30.204Z,-4.14
2023-01-23T05:49:57.552Z,-4.19
2023-01-23T05:52:28.386Z,-4.21
2023-01-23T05:54:55.152Z,-4.23
2023-01-23T05:57:22.059Z,-4.25
2023-01-23T06:00:11.456Z,-4.15
2023-01-23T06:02:57.497Z,-4.26
2023-01-23T06:05:37.606Z,-4.24
2023-01-23T06:08:12.724Z,-4.21
2023-01-23T06:10:39.536Z,-4.23
2023-01-23T06:13:06.421Z,-4.20
2023-01-23T06:15:34.971Z,-4.11
2023-01-23T06:18:08.883Z,-4.13
2023-01-23T06:20:35.771Z,-4.11
2023-01-23T06:23:11.945Z,-4.05
2023-01-23T06:25:39.222Z,-4.08
2023-01-23T06:28:08.721Z,-4.16
2023-01-23T06:30:37.319Z,-4.10
2023-01-23T06:33:09.368Z,-4.16
2023-01-23T06:35:40.603Z,-4.09
2023-01-23T06:38:07.314Z,-4.06
2023-01-23T06:40:33.973Z,-4.05
2023-01-23T06:43:13.407Z,-4.06
2023-01-23T06:45:45.949Z,-4.10
2023-01-23T06:48:13.104Z,-4.11
2023-01-23T06:50:42.702Z,-4.04
2023-01-23T06:53:14.188Z,-4.05
2023-01-23T06:55:41.054Z,-4.05
2023-01-23T06:58:10.081Z,-3.97
2023-01-23T07:00:44.353Z,-3.93
2023-01-23T07:03:17.232Z,-3.95
2023-01-23T07:05:43.841Z,-4.00
2023-01-23T07:08:11.593Z,-3.93
2023-01-23T07:10:38.688Z,-3.83
2023-01-23T07:13:10.303Z,-3.84
2023-01-23T07:15:37.892Z,-3.81
2023-01-23T07:18:05.677Z,-3.83
2023-01-23T07:20:32.394Z,-3.78
2023-01-23T07:22:59.886Z,-3.78
2023-01-23T07:25:26.560Z,-3.81
2023-01-23T07:27:53.187Z,-3.72
2023-01-23T07:30:20.324Z,-3.70
2023-01-23T07:32:47.192Z,-3.71
2023-01-23T07:35:13.829Z,-3.67
2023-01-23T07:37:40.452Z,-3.70
2023-01-23T07:40:07.617Z,-3.59
2023-01-23T07:42:34.192Z,-3.59
2023-01-23T07:45:00.987Z,-3.56
2023-01-23T07:47:27.621Z,-3.62
2023-01-23T07:49:54.211Z,-3.63
2023-01-23T07:52:20.781Z,-3.56
2023-01-23T07:54:47.344Z,-3.58
2023-01-23T07:57:13.917Z,-3.51
2023-01-23T07:59:40.556Z,-3.45
2023-01-23T08:02:10.594Z,-3.40
2023-01-23T08:04:37.607Z,-3.41
2023-01-23T08:07:04.388Z,-3.42
2023-01-23T08:09:31.001Z,-3.40
2023-01-23T08:11:57.847Z,-3.32
2023-01-23T08:14:24.469Z,-3.38
2023-01-23T08:16:53.145Z,-3.45
2023-01-23T08:19:19.811Z,-3.39
2023-01-23T08:21:47.032Z,-3.38
2023-01-23T08:24:14.126Z,-3.36
2023-01-23T08:26:42.065Z,-3.29
2023-01-23T08:29:09.083Z,-3.26
2023-01-23T08:31:39.318Z,-3.29
2023-01-23T08:34:06.228Z,-3.21
2023-01-23T08:36:33.020Z,-3.18
2023-01-23T08:39:00.102Z,-3.15
2023-01-23T08:41:26.692Z,-3.10
2023-01-23T08:43:53.303Z,-3.10
2023-01-23T08:46:20.084Z,-3.13
2023-01-23T08:48:46.681Z,-3.15
2023-01-23T08:51:14.402Z,-3.07
2023-01-23T08:53:42.063Z,-2.95
2023-01-23T08:56:16.801Z,-2.79
2023-01-23T08:58:44.061Z,-2.85
2023-01-23T09:01:16.256Z,-2.87
2023-01-23T09:03:42.958Z,-2.91
2023-01-23T09:06:11.774Z,-2.71
2023-01-23T09:08:38.377Z,-2.74
2023-01-23T09:11:07.050Z,-2.63
2023-01-23T09:13:34.507Z,-2.65
2023-01-23T09:16:01.959Z,-2.63
2023-01-23T09:18:28.992Z,-2.61
2023-01-23T09:20:58.429Z,-2.70
2023-01-23T09:23:25.389Z,-2.68
2023-01-23T09:25:52.108Z,-2.54
2023-01-23T09:28:18.699Z,-2.65
2023-01-23T09:30:45.333Z,-2.56
2023-01-23T09:33:11.987Z,-2.54
2023-01-23T09:35:38.572Z,-2.58
2023-01-23T09:38:07.548Z,-2.54
2023-01-23T09:40:45.732Z,-2.55
2023-01-23T09:43:16.802Z,-2.42
2023-01-23T09:46:05.443Z,-2.39
2023-01-23T09:48:42.954Z,-2.33
2023-01-23T09:51:28.211Z,-2.27
2023-01-23T09:54:01.616Z,-2.14
2023-01-23T09:56:35.246Z,-2.07
2023-01-23T09:59:13.398Z,-2.11
2023-01-23T10:01:40.194Z,-1.99
2023-01-23T10:04:10.376Z,-1.94
2023-01-23T10:06:52.739Z,-1.99
2023-01-23T10:09:19.160Z,-2.06
2023-01-23T10:11:57.657Z,-2.21
2023-01-23T10:14:43.056Z,-2.25
2023-01-23T10:17:18.755Z,-2.33
2023-01-23T10:19:51.219Z,-2.31
2023-01-23T10:22:29.980Z,-2.24
2023-01-23T10:24:58.228Z,-2.22
2023-01-23T10:27:33.802Z,-2.13
2023-01-23T10:30:03.938Z,-2.02
2023-01-23T10:32:37.505Z,-1.99
2023-01-23T10:35:12.382Z,-2.06
2023-01-23T10:38:12.576Z,-2.03
2023-01-23T10:40:57.686Z,-1.96
2023-01-23T10:43:26.827Z,-1.99
2023-01-23T10:45:53.435Z,-2.06
2023-01-23T10:48:32.266Z,-2.07
2023-01-23T10:51:00.160Z,-1.94
2023-01-23T10:53:27.527Z,-1.93
2023-01-23T10:55:58.087Z,-1.86
2023-01-23T10:58:38.668Z,-1.88
2023-01-23T11:01:07.248Z,-1.88
2023-01-23T11:03:35.688Z,-1.86
2023-01-23T11:06:08.210Z,-1.75
2023-01-23T11:08:40.559Z,-1.63
2023-01-23T11:11:18.907Z,-1.64
2023-01-23T11:13:47.965Z,-1.71
2023-01-23T11:16:21.188Z,-1.75
2023-01-23T11:19:09.954Z,-1.75
2023-01-23T11:21:56.715Z,-1.62
2023-01-23T11:24:38.367Z,-1.73
2023-01-23T11:27:15.327Z,-1.83
2023-01-23T11:30:12.715Z,-1.67
2023-01-23T11:32:51.123Z,-1.57
2023-01-23T11:35:25.935Z,-1.74
2023-01-23T11:37:55.872Z,-1.80
2023-01-23T11:40:22.803Z,-1.81
2023-01-23T11:42:49.475Z,-1.65
2023-01-23T11:45:26.568Z,-1.62
2023-01-23T11:47:59.259Z,-1.59
2023-01-23T11:50:57.123Z,-1.72
2023-01-23T11:53:41.420Z,-1.77
2023-01-23T11:56:33.703Z,-1.77
2023-01-23T11:59:03.161Z,-1.72
2023-01-23T12:02:03.538Z,-1.75
2023-01-23T12:04:36.635Z,-1.66
2023-01-23T12:07:21.038Z,-1.43
2023-01-23T12:09:59.994Z,-1.26
2023-01-23T12:12:57.961Z,-1.15
2023-01-23T12:16:07.135Z,-1.07
2023-01-23T12:19:01.114Z,-1.04
2023-01-23T12:21:47.963Z,-0.89
2023-01-23T12:24:34.579Z,-0.75
2023-01-23T12:27:06.508Z,-0.63
2023-01-23T12:29:47.927Z,-0.72
2023-01-23T12:32:35.894Z,-0.73
2023-01-23T12:35:14.617Z,-0.85
2023-01-23T12:37:48.395Z,-0.93
2023-01-23T12:40:31.731Z,-0.94
2023-01-23T12:43:16.638Z,-1.09
2023-01-23T12:45:56.749Z,-1.18
2023-01-23T12:48:30.602Z,-1.21
2023-01-23T12:51:12.512Z,-1.22
2023-01-23T12:53:41.763Z,-1.22
2023-01-23T12:56:16.414Z,-1.25
2023-01-23T12:58:55.898Z,-1.19
2023-01-23T13:01:50.964Z,-1.15
2023-01-23T13:04:42.889Z,-1.05
2023-01-23T13:07:27.250Z,-0.97
2023-01-23T13:10:05.955Z,-1.03
2023-01-23T13:12:33.046Z,-1.09
2023-01-23T13:15:27.763Z,-1.29
2023-01-23T13:18:02.450Z,-1.27
2023-01-23T13:20:52.591Z,-1.26
2023-01-23T13:23:20.614Z,-1.20
2023-01-23T13:25:47.768Z,-1.12
2023-01-23T13:28:45.237Z,-1.09
2023-01-23T13:31:34.433Z,-1.11
2023-01-23T13:34:14.907Z,-0.97
2023-01-23T13:36:50.052Z,-1.08
2023-01-23T13:39:16.734Z,-1.03
2023-01-23T13:41:45.316Z,-1.04
2023-01-23T13:44:40.729Z,-1.00
2023-01-23T14:22:13.848Z,-0.93
2023-01-23T14:24:48.413Z,-0.90
2023-01-23T14:27:44.460Z,-0.91
2023-01-23T14:30:21.452Z,-0.86
2023-01-23T14:32:48.031Z,-0.89
2023-01-23T14:35:31.210Z,-0.77
2023-01-23T14:38:00.649Z,-0.81
2023-01-23T14:40:30.728Z,-0.84
2023-01-23T14:43:09.109Z,-0.83
2023-01-23T14:45:37.461Z,-0.80
2023-01-23T14:48:13.391Z,-0.80
2023-01-23T14:50:40.268Z,-0.83
2023-01-23T14:53:13.890Z,-0.85
2023-01-23T14:55:44.718Z,-0.81
2023-01-23T14:58:22.507Z,-0.82
2023-01-23T15:00:50.468Z,-0.82
2023-01-23T15:03:37.897Z,-0.84
2023-01-23T15:06:09.882Z,-0.81
2023-01-23T15:08:37.796Z,-0.82
2023-01-23T15:11:06.599Z,-0.84
2023-01-23T15:13:55.217Z,-0.86
2023-01-23T15:16:29.022Z,-0.91
2023-01-23T15:19:04.724Z,-0.96
2023-01-23T15:21:34.621Z,-1.00
2023-01-23T15:24:05.436Z,-0.98
2023-01-23T15:26:35.342Z,-1.01
2023-01-23T15:29:04.855Z,-0.99
2023-01-23T15:31:32.820Z,-1.03
2023-01-23T15:34:15.149Z,-1.01
2023-01-23T15:36:50.907Z,-1.00
2023-01-23T15:39:38.302Z,-0.97
2023-01-23T15:42:13.709Z,-1.04
2023-01-23T15:44:42.106Z,-0.93
2023-01-23T15:47:09.052Z,-0.94
2023-01-23T15:49:38.479Z,-0.97
2023-01-23T15:52:27.064Z,-0.98
2023-01-23T15:54:56.960Z,-0.93
2023-01-23T15:57:23.608Z,-0.99
2023-01-23T15:59:50.416Z,-0.97
2023-01-23T16:02:32.621Z,-1.01
2023-01-23T16:05:01.726Z,-1.02
2023-01-23T16:07:34.511Z,-1.01
2023-01-23T16:10:04.657Z,-0.98
2023-01-23T16:12:32.699Z,-0.91
2023-01-23T16:14:59.456Z,-0.98
2023-01-23T16:17:26.117Z,-0.99
2023-01-23T16:19:54.344Z,-1.02
2023-01-23T16:22:27.108Z,-1.04
2023-01-23T16:24:53.965Z,-0.98
2023-01-23T16:27:27.262Z,-0.96
2023-01-23T16:29:55.392Z,-0.99
2023-01-23T16:32:22.207Z,-1.06
2023-01-23T16:34:48.849Z,-1.07
2023-01-23T16:37:17.428Z,-1.05
2023-01-23T16:39:45.425Z,-1.05
2023-01-23T16:42:30.601Z,-1.04
2023-01-23T16:44:57.704Z,-1.05
2023-01-23T16:47:24.747Z,-1.08
2023-01-23T16:49:53.304Z,-1.12
2023-01-23T16:52:24.949Z,-1.08
2023-01-23T16:54:53.240Z,-1.07
2023-01-23T16:57:21.143Z,-1.09
2023-01-23T16:59:49.878Z,-1.09
2023-01-23T17:02:29.564Z,-1.11
2023-01-23T17:05:07.270Z,-1.03
2023-01-23T17:07:33.837Z,-0.96
2023-01-23T17:10:00.448Z,-1.05
2023-01-23T17:12:32.010Z,-1.10
2023-01-23T17:14:58.706Z,-1.11
2023-01-23T17:17:31.815Z,-1.15
2023-01-23T17:19:59.136Z,-1.15
2023-01-23T17:22:30.435Z,-1.10
2023-01-23T17:24:57.248Z,-1.06
2023-01-23T17:27:24.092Z,-1.08
2023-01-23T17:29:50.877Z,-1.13
2023-01-23T17:32:31.221Z,-1.07
2023-01-23T17:35:02.528Z,-1.07
2023-01-23T17:37:29.770Z,-1.08
2023-01-23T17:39:56.348Z,-1.08
2023-01-23T17:42:23.023Z,-1.06
2023-01-23T17:44:49.655Z,-1.08
2023-01-23T17:47:16.852Z,-1.07
2023-01-23T17:49:51.591Z,-0.96
2023-01-23T17:52:20.214Z,-0.86
2023-01-23T17:54:46.840Z,-0.89
2023-01-23T17:57:14.951Z,-0.93
2023-01-23T17:59:41.633Z,-1.00
2023-01-23T18:02:28.662Z,-1.01
2023-01-23T18:04:56.015Z,-0.96
2023-01-23T18:07:22.671Z,-1.01
2023-01-23T18:09:49.409Z,-1.06
2023-01-23T18:12:27.431Z,-1.06
2023-01-23T18:15:06.322Z,-1.08
2023-01-23T18:17:36.667Z,-1.10
2023-01-23T18:20:13.580Z,-1.07
2023-01-23T18:22:43.295Z,-0.98
2023-01-23T18:25:15.726Z,-0.97
2023-01-23T18:27:46.868Z,-1.01
2023-01-23T18:30:47.443Z,-1.06
2023-01-23T18:33:20.005Z,-1.05
2023-01-23T18:36:15.430Z,-1.00
2023-01-23T18:38:57.247Z,-1.06
2023-01-23T18:41:27.062Z,-1.04
2023-01-23T18:44:06.573Z,-1.07
2023-01-23T18:46:33.752Z,-1.07
2023-01-23T18:49:00.642Z,-1.06
2023-01-23T18:51:47.234Z,-1.07
2023-01-23T18:54:29.087Z,-1.10
2023-01-23T18:57:20.504Z,-1.07
2023-01-23T19:00:05.578Z,-1.06
2023-01-23T19:02:46.508Z,-1.02
2023-01-23T19:05:19.177Z,-1.07
2023-01-23T19:07:46.540Z,-1.08
2023-01-23T19:10:18.782Z,-1.06
2023-01-23T19:13:07.588Z,-1.04
2023-01-23T19:15:49.126Z,-1.06
2023-01-23T19:18:41.789Z,-1.07
2023-01-23T19:21:18.005Z,-1.03
2023-01-23T19:23:59.323Z,-1.05
2023-01-23T19:26:33.123Z,-1.00
2023-01-23T19:29:08.382Z,-1.04
2023-01-23T19:31:49.746Z,-1.02
2023-01-23T19:34:22.310Z,-1.01
2023-01-23T19:36:48.919Z,-0.99
2023-01-23T19:39:15.494Z,-1.00
2023-01-23T19:41:45.574Z,-1.01
2023-01-23T19:44:14.519Z,-1.02
2023-01-23T19:46:42.432Z,-1.00
2023-01-23T19:49:12.589Z,-1.03
2023-01-23T19:51:42.825Z,-1.01
2023-01-23T19:54:13.701Z,-1.02
2023-01-23T19:56:40.993Z,-0.99
2023-01-23T19:59:08.000Z,-1.01
2023-01-23T20:01:40.758Z,-1.01
2023-01-23T20:04:15.984Z,-1.01
2023-01-23T20:06:45.463Z,-1.02
2023-01-23T20:09:14.587Z,-1.02
2023-01-23T20:11:42.537Z,-0.99
2023-01-23T20:14:09.132Z,-0.95
2023-01-23T20:16:40.108Z,-0.98
2023-01-23T20:19:07.356Z,-0.95
2023-01-23T20:21:36.985Z,-0.96
2023-01-23T20:24:03.876Z,-0.97
2023-01-23T20:26:30.583Z,-0.90
2023-01-23T20:28:58.043Z,-0.89
2023-01-23T20:31:24.793Z,-0.86
2023-01-23T20:33:51.591Z,-0.93
2023-01-23T20:36:21.207Z,-0.84
2023-01-23T20:38:48.185Z,-0.91
2023-01-23T20:41:18.784Z,-0.89
2023-01-23T20:43:46.168Z,-0.92
2023-01-23T20:46:16.452Z,-0.89
2023-01-23T20:48:45.252Z,-0.92
2023-01-23T20:51:16.709Z,-0.91
2023-01-23T20:53:43.689Z,-0.93
2023-01-23T20:56:16.108Z,-0.91
2023-01-23T20:59:03.296Z,-0.91
2023-01-23T21:01:53.770Z,-0.90
2023-01-23T21:04:21.955Z,-0.93
2023-01-23T21:06:48.764Z,-0.88
2023-01-23T21:09:15.874Z,-0.92
2023-01-23T21:11:42.471Z,-0.93
2023-01-23T21:14:09.098Z,-0.93
2023-01-23T21:16:36.020Z,-0.91
2023-01-23T21:19:02.776Z,-0.93
2023-01-23T21:21:29.446Z,-0.93
2023-01-23T21:23:56.077Z,-0.91
2023-01-23T21:26:27.870Z,-0.86
2023-01-23T21:28:56.594Z,-0.87
2023-01-23T21:31:26.255Z,-0.91
2023-01-23T21:33:53.384Z,-0.90
2023-01-23T21:36:23.405Z,-0.91
2023-01-23T21:38:51.445Z,-0.90
2023-01-23T21:41:18.600Z,-0.93
2023-01-23T21:43:45.278Z,-0.90
2023-01-23T21:46:12.029Z,-0.90
2023-01-23T21:48:39.079Z,-0.87
2023-01-23T21:51:22.171Z,-0.88
2023-01-23T21:53:50.139Z,-0.89
2023-01-23T21:56:19.701Z,-0.91
2023-01-23T21:58:49.734Z,-0.94
2023-01-23T22:01:38.005Z,-0.90
2023-01-23T22:04:10.942Z,-0.83
2023-01-23T22:06:39.647Z,-0.86
2023-01-23T22:09:07.075Z,-0.86
2023-01-23T22:11:34.794Z,-0.91
2023-01-23T22:14:02.052Z,-0.84
2023-01-23T22:16:46.878Z,-0.86
2023-01-23T22:19:16.931Z,-0.87
2023-01-23T22:21:46.138Z,-0.89
2023-01-23T22:24:15.680Z,-0.90
2023-01-23T22:26:42.863Z,-0.89
2023-01-23T22:29:11.012Z,-0.86
2023-01-23T22:31:37.724Z,-0.83
2023-01-23T22:34:04.445Z,-0.84
2023-01-23T22:36:31.019Z,-0.87
2023-01-23T22:38:57.641Z,-0.83
2023-01-23T22:41:24.448Z,-0.86
2023-01-23T22:43:59.268Z,-0.83
2023-01-23T22:46:26.672Z,-0.85
2023-01-23T22:48:53.621Z,-0.85
2023-01-23T22:51:25.634Z,-0.82
2023-01-23T22:53:57.091Z,-0.78
2023-01-23T22:56:24.745Z,-0.82
2023-01-23T22:58:53.423Z,-0.82
2023-01-23T23:01:23.308Z,-0.84
2023-01-23T23:03:51.118Z,-0.82
2023-01-23T23:06:17.932Z,-0.78
2023-01-23T23:08:47.489Z,-0.82
2023-01-23T23:11:18.326Z,-0.84
2023-01-23T23:13:45.593Z,-0.81
2023-01-23T23:16:17.796Z,-0.83
2023-01-23T23:18:45.604Z,-0.83
2023-01-23T23:21:14.428Z,-0.83
2023-01-23T23:23:41.078Z,-0.81
2023-01-23T23:26:09.524Z,-0.76
2023-01-23T23:28:37.381Z,-0.78
2023-01-23T23:31:05.012Z,-0.79
2023-01-23T23:33:34.867Z,-0.81
2023-01-23T23:36:01.689Z,-0.78
2023-01-23T23:38:28.273Z,-0.74
2023-01-23T23:41:03.460Z,-0.74
2023-01-23T23:43:30.984Z,-0.75
2023-01-23T23:46:00.681Z,-0.69
2023-01-23T23:48:28.654Z,-0.67
2023-01-23T23:50:57.563Z,-0.71
2023-01-23T23:53:24.144Z,-0.76
2023-01-23T23:55:50.705Z,-0.75
2023-01-23T23:58:17.950Z,-0.76
